Terminal Aerodrome Forecast
Issued by NWS

Home | Current Version | Previous Version | Text Only | Print | Product List | Glossary On
Versions: 1 2 3 4 5 6 7 8 9 10 11 12 13 14 15 16 17
000
FTUS41 KGYX 272300 RRA
TAFPSM
TAF
KPSM 272345Z 2800/2824 16006KT P6SM BKN008
      TEMPO 2800/2802 SCT008 BKN025
     FM280500 VRB04KT 2SM BR BKN003
     FM281200 15009KT 5SM -SHRA BR SCT005 OVC012=

USA.gov is the U.S. government's official web portal to all federal, state and local government web resources and services.